createdAt,value
2018-05-07T00:01:07.190Z,96063.52
2018-05-07T00:03:35.577Z,96063.08
2018-05-07T00:06:03.941Z,96053.58
2018-05-07T00:08:32.299Z,96055.78
2018-05-07T00:11:00.636Z,96058.96
2018-05-07T00:13:28.958Z,96053.97
2018-05-07T00:15:57.303Z,96053.19
2018-05-07T00:18:25.643Z,96051.25
2018-05-07T00:20:53.972Z,96050.33
2018-05-07T00:23:22.356Z,96046.94
2018-05-07T00:25:50.688Z,96057.28
2018-05-07T00:28:19.043Z,96049.95
2018-05-07T00:30:47.349Z,96043.86
2018-05-07T00:33:15.672Z,96053.31
2018-05-07T00:35:44.006Z,96048.44
2018-05-07T00:38:12.325Z,96042.09
2018-05-07T00:40:40.661Z,96044.17
2018-05-07T00:43:08.967Z,96040.56
2018-05-07T00:45:37.301Z,96043.91
2018-05-07T00:48:05.630Z,96036.92
2018-05-07T00:50:34.021Z,96040.30
2018-05-07T00:53:02.339Z,96040.33
2018-05-07T00:55:30.636Z,96038.76
2018-05-07T00:57:58.981Z,96038.70
2018-05-07T01:00:27.324Z,96039.41
2018-05-07T01:02:55.668Z,96039.65
2018-05-07T01:05:23.980Z,96041.70
2018-05-07T01:07:52.320Z,96035.18
2018-05-07T01:10:20.702Z,96039.00
2018-05-07T01:12:49.106Z,96034.29
2018-05-07T01:15:17.357Z,96039.63
2018-05-07T01:17:45.883Z,96037.44
2018-05-07T01:20:14.195Z,96037.23
2018-05-07T01:22:42.530Z,96037.06
2018-05-07T01:25:10.838Z,96035.40
2018-05-07T01:27:39.269Z,96034.23
2018-05-07T01:30:07.597Z,96041.11
2018-05-07T01:32:36.037Z,96039.98
2018-05-07T01:35:04.405Z,96036.28
2018-05-07T01:37:32.892Z,96037.75
2018-05-07T01:40:01.218Z,96039.05
2018-05-07T01:42:29.531Z,96033.30
2018-05-07T01:44:57.860Z,96036.87
2018-05-07T01:47:26.202Z,96041.53
2018-05-07T01:49:54.580Z,96038.39
2018-05-07T01:52:22.959Z,96035.72
2018-05-07T01:54:51.284Z,96032.95
2018-05-07T01:57:19.634Z,96031.52
2018-05-07T01:59:47.990Z,96030.14
2018-05-07T02:02:17.259Z,96029.91
2018-05-07T02:04:46.598Z,96029.95
2018-05-07T02:07:14.966Z,96027.84
2018-05-07T02:09:43.305Z,96030.95
2018-05-07T02:12:11.622Z,96029.98
2018-05-07T02:14:39.957Z,96023.23
2018-05-07T02:17:08.303Z,96022.78
2018-05-07T02:19:36.644Z,96028.02
2018-05-07T02:22:05.053Z,96025.30
2018-05-07T02:24:33.405Z,96023.84
2018-05-07T02:27:01.721Z,96027.34
2018-05-07T02:29:30.025Z,96013.95
2018-05-07T02:31:58.456Z,96014.13
2018-05-07T02:34:26.830Z,96012.61
2018-05-07T02:36:55.240Z,96012.56
2018-05-07T02:39:23.544Z,96006.35
2018-05-07T02:41:51.946Z,96011.11
2018-05-07T02:44:20.357Z,96008.50
2018-05-07T02:46:49.651Z,96007.50
2018-05-07T02:49:17.965Z,96005.91
2018-05-07T02:51:46.390Z,96004.12
2018-05-07T02:54:14.713Z,96006.94
2018-05-07T02:56:43.047Z,96007.73
2018-05-07T02:59:11.354Z,96008.69
2018-05-07T03:01:39.777Z,96007.87
2018-05-07T03:04:08.185Z,96009.23
2018-05-07T03:06:36.534Z,96005.38
2018-05-07T03:09:04.838Z,96003.73
2018-05-07T03:11:33.158Z,96003.66
2018-05-07T03:14:01.504Z,96008.29
2018-05-07T03:16:29.820Z,96001.88
2018-05-07T03:18:58.290Z,96002.31
2018-05-07T03:21:26.601Z,95999.14
2018-05-07T03:23:55.010Z,95994.72
2018-05-07T03:26:23.325Z,96003.05
2018-05-07T03:28:51.662Z,96005.23
2018-05-07T03:31:20.909Z,96001.89
2018-05-07T03:33:49.334Z,96009.42
2018-05-07T03:36:17.716Z,96007.58
2018-05-07T03:38:46.080Z,96009.55
2018-05-07T03:41:14.432Z,96010.42
2018-05-07T03:43:42.808Z,96007.02
2018-05-07T03:46:11.129Z,96004.70
2018-05-07T03:48:39.564Z,96007.35
2018-05-07T03:51:07.803Z,96010.86
2018-05-07T03:53:36.140Z,96009.30
2018-05-07T03:56:04.536Z,96008.95
2018-05-07T03:58:32.890Z,96012.57
2018-05-07T04:01:01.238Z,96008.38
2018-05-07T04:03:29.680Z,96008.31
2018-05-07T04:05:57.993Z,96011.34
2018-05-07T04:08:26.337Z,96005.09
2018-05-07T04:10:54.705Z,96009.58
2018-05-07T04:13:23.025Z,96011.16
2018-05-07T04:15:51.368Z,96008.33
2018-05-07T04:18:31.443Z,96011.83
2018-05-07T04:21:15.120Z,96005.31
2018-05-07T04:23:55.421Z,96004.52
2018-05-07T04:26:24.676Z,96010.42
2018-05-07T04:28:53.080Z,95999.61
2018-05-07T04:31:21.460Z,96004.18
2018-05-07T04:33:49.878Z,95998.36
2018-05-07T04:36:18.120Z,96000.32
2018-05-07T04:38:46.445Z,96000.28
2018-05-07T04:41:14.921Z,96001.30
2018-05-07T04:43:43.213Z,96005.14
2018-05-07T04:46:11.545Z,96008.79
2018-05-07T04:48:39.929Z,96005.62
2018-05-07T04:51:08.297Z,96008.89
2018-05-07T04:53:36.693Z,96017.21
2018-05-07T04:56:05.025Z,96014.89
2018-05-07T04:58:33.340Z,96018.75
2018-05-07T05:01:01.733Z,96018.86
2018-05-07T05:03:30.029Z,96013.03
2018-05-07T05:05:58.370Z,96015.00
2018-05-07T05:08:27.620Z,96016.94
2018-05-07T05:10:56.036Z,96023.46
2018-05-07T05:13:24.374Z,96023.78
2018-05-07T05:15:52.696Z,96019.42
2018-05-07T05:18:21.076Z,96026.56
2018-05-07T05:20:49.420Z,96020.94
2018-05-07T05:23:17.837Z,96021.78
2018-05-07T05:25:46.170Z,96026.27
2018-05-07T05:28:14.581Z,96023.81
2018-05-07T05:30:43.001Z,96027.27
2018-05-07T05:33:11.310Z,96025.70
2018-05-07T05:35:39.728Z,96023.33
2018-05-07T05:38:08.077Z,96022.02
2018-05-07T05:40:36.373Z,96021.08
2018-05-07T05:43:04.709Z,96013.30
2018-05-07T05:45:33.019Z,96016.66
2018-05-07T05:48:01.431Z,96017.56
2018-05-07T05:50:29.730Z,96017.34
2018-05-07T05:52:58.065Z,96014.58
2018-05-07T05:55:26.389Z,96023.81
2018-05-07T05:57:54.757Z,96017.26
2018-05-07T06:00:23.060Z,96022.63
2018-05-07T06:02:51.401Z,96023.70
2018-05-07T06:05:19.693Z,96024.70
2018-05-07T06:07:48.363Z,96027.21
2018-05-07T06:10:16.672Z,96021.54
2018-05-07T06:12:45.004Z,96025.78
2018-05-07T06:15:13.314Z,96020.69
2018-05-07T06:17:41.664Z,96023.98
2018-05-07T06:20:10.081Z,96026.46
2018-05-07T06:22:38.393Z,96029.85
2018-05-07T06:25:06.725Z,96025.25
2018-05-07T06:27:35.050Z,96021.05
2018-05-07T06:30:03.429Z,96020.95
2018-05-07T06:32:31.800Z,96023.33
2018-05-07T06:35:00.181Z,96013.78
2018-05-07T06:37:28.504Z,96018.89
2018-05-07T06:39:56.879Z,96012.22
2018-05-07T06:42:25.172Z,96013.72
2018-05-07T06:44:53.508Z,96010.99
2018-05-07T06:47:21.822Z,96017.45
2018-05-07T06:49:50.158Z,96015.13
2018-05-07T06:52:18.483Z,96017.70
2018-05-07T06:54:46.909Z,96016.81
2018-05-07T06:57:15.234Z,96016.58
2018-05-07T06:59:43.669Z,96012.14
2018-05-07T07:02:12.060Z,96013.89
2018-05-07T07:04:40.427Z,96006.77
2018-05-07T07:07:08.793Z,96006.14
2018-05-07T07:09:37.133Z,96013.91
2018-05-07T07:12:05.457Z,96003.73
2018-05-07T07:14:33.827Z,96004.25
2018-05-07T07:17:02.157Z,96002.82
2018-05-07T07:19:30.475Z,95999.05
2018-05-07T07:21:58.809Z,95994.16
2018-05-07T07:24:27.137Z,95992.39
2018-05-07T07:26:55.482Z,95998.38
2018-05-07T07:29:23.791Z,96000.98
2018-05-07T07:31:52.210Z,95995.77
2018-05-07T07:34:20.534Z,95997.09
2018-05-07T07:36:49.005Z,96000.28
2018-05-07T07:39:17.405Z,95998.02
2018-05-07T07:41:45.745Z,96001.45
2018-05-07T07:44:14.039Z,95999.05
2018-05-07T07:46:42.377Z,95999.63
2018-05-07T07:49:10.721Z,96001.39
2018-05-07T07:51:39.145Z,95993.20
2018-05-07T07:54:07.471Z,95994.69
2018-05-07T07:56:35.792Z,95987.05
2018-05-07T07:59:04.129Z,95985.97
2018-05-07T08:01:32.447Z,95986.82
2018-05-07T08:04:00.983Z,95983.35
2018-05-07T08:06:29.301Z,95987.11
2018-05-07T08:08:57.750Z,95985.41
2018-05-07T08:11:26.058Z,95977.78
2018-05-07T08:13:54.488Z,95976.65
2018-05-07T08:16:22.881Z,95968.83
2018-05-07T08:18:51.213Z,95974.52
2018-05-07T08:21:19.532Z,95974.16
2018-05-07T08:23:47.883Z,95965.91
2018-05-07T08:26:16.211Z,95976.83
2018-05-07T08:28:44.558Z,95980.53
2018-05-07T08:31:12.869Z,95980.32
2018-05-07T08:33:41.201Z,95978.15
2018-05-07T08:36:09.581Z,95979.65
2018-05-07T08:38:37.923Z,95976.75
2018-05-07T08:41:06.245Z,95969.89
2018-05-07T08:43:34.609Z,95971.43
2018-05-07T08:46:03.000Z,95974.75
2018-05-07T08:48:31.312Z,95964.97
2018-05-07T08:50:59.703Z,95967.88
2018-05-07T08:53:27.996Z,95965.23
2018-05-07T08:55:56.445Z,95966.17
2018-05-07T08:58:24.796Z,95972.49
2018-05-07T09:00:53.172Z,95960.71
2018-05-07T09:03:21.492Z,95957.94
2018-05-07T09:05:49.821Z,95958.16
2018-05-07T09:08:18.146Z,95958.75
2018-05-07T09:10:46.491Z,95963.64
2018-05-07T09:13:14.799Z,95964.55
2018-05-07T09:15:43.141Z,95959.14
2018-05-07T09:18:11.452Z,95960.78
2018-05-07T09:20:39.778Z,95956.51
2018-05-07T09:23:08.109Z,95959.31
2018-05-07T09:25:36.436Z,95957.23
2018-05-07T09:28:04.770Z,95952.94
2018-05-07T09:30:33.106Z,95947.89
2018-05-07T09:33:01.481Z,95947.77
2018-05-07T09:35:29.820Z,95954.76
2018-05-07T09:37:58.146Z,95945.22
2018-05-07T09:40:26.481Z,95948.72
2018-05-07T09:42:54.827Z,95939.54
2018-05-07T09:45:23.123Z,95944.31
2018-05-07T09:47:51.457Z,95946.44
2018-05-07T09:50:19.821Z,95947.41
2018-05-07T09:52:48.173Z,95944.59
2018-05-07T09:55:16.573Z,95933.95
2018-05-07T09:57:56.925Z,95937.16
2018-05-07T10:00:25.257Z,95927.00
2018-05-07T10:02:53.600Z,95930.83
2018-05-07T10:05:21.919Z,95929.70
2018-05-07T10:07:50.252Z,95924.72
2018-05-07T10:10:18.586Z,95926.53
2018-05-07T10:12:46.995Z,95926.20
2018-05-07T10:15:15.378Z,95921.64
2018-05-07T10:17:43.761Z,95927.03
2018-05-07T10:20:12.082Z,95921.96
2018-05-07T10:22:40.405Z,95924.71
2018-05-07T10:25:08.727Z,95917.24
2018-05-07T10:27:37.165Z,95921.03
2018-05-07T10:30:05.559Z,95920.83
2018-05-07T10:32:33.968Z,95912.17
2018-05-07T10:35:02.292Z,95908.48
2018-05-07T10:37:30.616Z,95914.30
2018-05-07T10:39:58.948Z,95904.85
2018-05-07T10:42:27.337Z,95906.69
2018-05-07T10:44:55.712Z,95905.92
2018-05-07T10:47:24.026Z,95902.75
2018-05-07T10:49:52.374Z,95907.48
2018-05-07T10:52:20.693Z,95903.94
2018-05-07T10:54:49.065Z,95891.50
2018-05-07T10:57:17.361Z,95893.87
2018-05-07T10:59:45.705Z,95898.41
2018-05-07T11:02:14.053Z,95890.35
2018-05-07T11:04:42.381Z,95895.06
2018-05-07T11:07:10.712Z,95892.63
2018-05-07T11:09:39.055Z,95896.53
2018-05-07T11:12:07.388Z,95885.83
2018-05-07T11:14:35.740Z,95884.25
2018-05-07T11:17:04.087Z,95883.66
2018-05-07T11:19:32.396Z,95884.75
2018-05-07T11:22:00.771Z,95873.57
2018-05-07T11:24:29.084Z,95870.59
2018-05-07T11:26:57.475Z,95865.17
2018-05-07T11:29:25.789Z,95871.98
2018-05-07T11:31:54.147Z,95861.94
2018-05-07T11:34:22.437Z,95866.89
2018-05-07T11:36:50.785Z,95857.89
2018-05-07T11:39:19.108Z,95858.07
2018-05-07T11:41:47.435Z,95852.73
2018-05-07T11:44:15.813Z,95853.59
2018-05-07T11:46:44.136Z,95849.48
2018-05-07T11:49:12.568Z,95850.59
2018-05-07T11:51:40.903Z,95847.22
2018-05-07T11:54:09.291Z,95846.40
2018-05-07T11:56:37.600Z,95841.51
2018-05-07T11:59:05.942Z,95835.52
2018-05-07T12:01:34.344Z,95831.53
2018-05-07T12:04:02.762Z,95832.54
2018-05-07T12:06:31.076Z,95831.64
2018-05-07T12:08:59.493Z,95832.97
2018-05-07T12:11:27.734Z,95831.60
2018-05-07T12:13:56.079Z,95820.41
2018-05-07T12:16:24.481Z,95820.08
2018-05-07T12:18:52.821Z,95818.87
2018-05-07T12:21:21.130Z,95815.95
2018-05-07T12:23:49.478Z,95811.22
2018-05-07T12:26:17.789Z,95808.66
2018-05-07T12:28:46.132Z,95809.70
2018-05-07T12:31:14.549Z,95809.59
2018-05-07T12:33:42.880Z,95811.46
2018-05-07T12:36:11.201Z,95813.03
2018-05-07T12:38:39.584Z,95807.30
2018-05-07T12:41:07.895Z,95804.02
2018-05-07T12:43:36.279Z,95802.47
2018-05-07T12:46:04.584Z,95796.37
2018-05-07T12:48:32.900Z,95792.45
2018-05-07T12:51:01.276Z,95791.78
2018-05-07T12:53:29.586Z,95784.98
2018-05-07T12:55:57.923Z,95788.89
2018-05-07T12:58:26.343Z,95786.18
2018-05-07T13:00:54.724Z,95784.58
2018-05-07T13:03:23.086Z,95776.56
2018-05-07T13:05:51.499Z,95775.02
2018-05-07T13:08:19.763Z,95766.83
2018-05-07T13:10:48.096Z,95766.81
2018-05-07T13:13:16.405Z,95764.58
2018-05-07T13:15:44.737Z,95763.25
2018-05-07T13:18:13.129Z,95755.49
2018-05-07T13:20:41.461Z,95753.88
2018-05-07T13:23:09.780Z,95749.69
2018-05-07T13:25:38.112Z,95740.60
2018-05-07T13:28:06.429Z,95744.31
2018-05-07T13:30:34.776Z,95732.27
2018-05-07T13:33:03.091Z,95734.18
2018-05-07T13:35:31.464Z,95734.09
2018-05-07T13:37:59.845Z,95728.08
2018-05-07T13:40:28.173Z,95719.60
2018-05-07T13:42:56.516Z,95721.25
2018-05-07T13:45:24.877Z,95716.28
2018-05-07T13:47:53.291Z,95720.34
2018-05-07T13:50:21.647Z,95712.84
2018-05-07T13:52:50.005Z,95715.78
2018-05-07T13:55:18.326Z,95710.47
2018-05-07T13:57:46.653Z,95708.24
2018-05-07T14:00:14.984Z,95703.63
2018-05-07T14:02:43.335Z,95699.83
2018-05-07T14:05:11.708Z,95703.06
2018-05-07T14:07:40.093Z,95700.97
2018-05-07T14:10:08.464Z,95692.30
2018-05-07T14:12:36.873Z,95693.45
2018-05-07T14:15:05.201Z,95696.10
2018-05-07T14:17:33.633Z,95681.39
2018-05-07T14:20:01.958Z,95679.89
2018-05-07T14:22:30.278Z,95683.56
2018-05-07T14:24:58.621Z,95679.67
2018-05-07T14:27:26.925Z,95675.10
2018-05-07T14:29:55.287Z,95670.02
2018-05-07T14:32:23.593Z,95668.25
2018-05-07T14:34:51.956Z,95659.47
2018-05-07T14:37:20.312Z,95664.48
2018-05-07T14:39:48.653Z,95667.00
2018-05-07T14:42:16.972Z,95667.86
2018-05-07T14:44:45.384Z,95662.52
2018-05-07T14:47:13.686Z,95660.69
2018-05-07T14:49:42.034Z,95653.92
2018-05-07T14:52:10.351Z,95656.11
2018-05-07T14:54:38.669Z,95654.65
2018-05-07T14:57:06.993Z,95654.34
2018-05-07T14:59:35.401Z,95650.08
2018-05-07T15:02:03.789Z,95647.32
2018-05-07T15:04:32.105Z,95648.36
2018-05-07T15:07:00.441Z,95642.40
2018-05-07T15:09:28.813Z,95644.59
2018-05-07T15:11:57.149Z,95653.66
2018-05-07T15:14:25.465Z,95647.77
2018-05-07T15:16:53.828Z,95647.35
2018-05-07T15:19:22.228Z,95640.41
2018-05-07T15:21:50.567Z,95637.75
2018-05-07T15:24:18.876Z,95636.08
2018-05-07T15:26:47.271Z,95639.18
2018-05-07T15:29:15.706Z,95632.55
2018-05-07T15:31:43.989Z,95629.55
2018-05-07T15:34:12.313Z,95620.88
2018-05-07T15:36:40.679Z,95626.67
2018-05-07T15:39:09.005Z,95620.98
2018-05-07T15:41:37.441Z,95615.80
2018-05-07T15:44:05.843Z,95606.59
2018-05-07T15:46:34.193Z,95606.46
2018-05-07T15:49:02.557Z,95609.70
2018-05-07T15:51:30.922Z,95610.25
2018-05-07T15:53:59.280Z,95613.92
2018-05-07T15:56:27.604Z,95608.70
2018-05-07T15:58:55.966Z,95612.52
2018-05-07T16:01:24.279Z,95603.73
2018-05-07T16:03:52.623Z,95613.80
2018-05-07T16:06:20.964Z,95610.97
2018-05-07T16:08:49.406Z,95609.69
2018-05-07T16:11:17.695Z,95604.95
2018-05-07T16:13:46.014Z,95600.83
2018-05-07T16:16:14.333Z,95603.69
2018-05-07T16:18:42.690Z,95600.61
2018-05-07T16:21:10.983Z,95599.19
2018-05-07T16:23:39.317Z,95601.51
2018-05-07T16:26:07.670Z,95595.02
2018-05-07T16:28:36.001Z,95598.11
2018-05-07T16:31:04.431Z,95600.75
2018-05-07T16:33:32.725Z,95595.12
2018-05-07T16:36:01.033Z,95588.05
2018-05-07T16:38:29.404Z,95587.35
2018-05-07T16:40:57.706Z,95595.06
2018-05-07T16:43:26.108Z,95595.57
2018-05-07T16:45:54.438Z,95585.24
2018-05-07T16:48:22.764Z,95587.42
2018-05-07T16:50:51.098Z,95594.26
2018-05-07T16:53:19.477Z,95592.27
2018-05-07T16:55:47.850Z,95595.94
2018-05-07T16:58:16.172Z,95593.90
2018-05-07T17:00:44.497Z,95592.73
2018-05-07T17:03:12.817Z,95595.56
2018-05-07T17:05:41.141Z,95597.90
2018-05-07T17:08:09.549Z,95601.38
2018-05-07T17:10:37.920Z,95600.95
2018-05-07T17:13:06.298Z,95599.70
2018-05-07T17:15:34.625Z,95597.61
2018-05-07T17:18:02.958Z,95601.92
2018-05-07T17:20:31.276Z,95606.37
2018-05-07T17:22:59.704Z,95602.34
2018-05-07T17:25:28.094Z,95604.30
2018-05-07T17:27:56.432Z,95611.58
2018-05-07T17:30:24.793Z,95610.09
2018-05-07T17:32:53.186Z,95610.80
2018-05-07T17:35:21.502Z,95615.54
2018-05-07T17:37:50.604Z,95614.48
2018-05-07T17:40:18.987Z,95608.74
2018-05-07T17:42:47.358Z,95602.13
2018-05-07T17:45:30.327Z,95604.83
2018-05-07T17:48:10.740Z,95608.41
2018-05-07T17:50:38.971Z,95616.11
2018-05-07T17:53:07.305Z,95611.86
2018-05-07T17:55:35.666Z,95610.63
2018-05-07T17:58:04.042Z,95608.95
2018-05-07T18:00:32.356Z,95611.83
2018-05-07T18:03:00.699Z,95614.48
2018-05-07T18:05:29.024Z,95608.91
2018-05-07T18:07:57.376Z,95610.53
2018-05-07T18:10:25.746Z,95609.91
2018-05-07T18:12:54.047Z,95606.20
2018-05-07T18:15:22.426Z,95608.87
2018-05-07T18:17:50.880Z,95610.91
2018-05-07T18:20:19.224Z,95606.97
2018-05-07T18:22:47.626Z,95610.49
2018-05-07T18:25:15.958Z,95614.73
2018-05-07T18:27:44.285Z,95615.83
2018-05-07T18:30:12.613Z,95615.23
2018-05-07T18:32:41.116Z,95607.60
2018-05-07T18:35:09.404Z,95606.42
2018-05-07T18:37:37.713Z,95612.38
2018-05-07T18:40:06.072Z,95610.88
2018-05-07T18:42:34.389Z,95607.55
2018-05-07T18:45:02.877Z,95608.80
2018-05-07T18:47:31.186Z,95609.66
2018-05-07T18:49:59.534Z,95604.14
2018-05-07T18:52:27.854Z,95608.48
2018-05-07T18:54:56.306Z,95608.18
2018-05-07T18:57:24.625Z,95610.70
2018-05-07T18:59:52.997Z,95610.35
2018-05-07T19:02:21.314Z,95612.75
2018-05-07T19:04:49.743Z,95616.28
2018-05-07T19:07:18.067Z,95616.46
2018-05-07T19:09:46.409Z,95616.28
2018-05-07T19:12:14.718Z,95621.60
2018-05-07T19:14:43.025Z,95610.41
2018-05-07T19:17:11.364Z,95616.91
2018-05-07T19:19:39.782Z,95619.45
2018-05-07T19:22:08.186Z,95617.28
2018-05-07T19:24:36.564Z,95619.45
2018-05-07T19:27:05.000Z,95615.06
2018-05-07T19:29:33.326Z,95618.43
2018-05-07T19:32:02.764Z,95620.22
2018-05-07T19:34:31.990Z,95622.02
2018-05-07T19:37:00.386Z,95623.52
2018-05-07T19:39:28.705Z,95628.20
2018-05-07T19:41:57.697Z,95625.45
2018-05-07T19:44:26.057Z,95628.23
2018-05-07T19:46:54.409Z,95626.27
2018-05-07T19:49:22.731Z,95632.72
2018-05-07T19:51:51.108Z,95629.34
2018-05-07T19:54:19.423Z,95628.52
2018-05-07T19:56:47.749Z,95631.27
2018-05-07T19:59:16.260Z,95629.77
2018-05-07T20:01:44.620Z,95626.17
2018-05-07T20:04:12.952Z,95629.97
2018-05-07T20:06:41.661Z,95628.37
2018-05-07T20:09:09.997Z,95625.87
2018-05-07T20:11:38.314Z,95629.01
2018-05-07T20:14:06.663Z,95623.70
2018-05-07T20:16:34.991Z,95627.24
2018-05-07T20:19:03.326Z,95623.52
2018-05-07T20:21:31.645Z,95623.91
2018-05-07T20:23:59.988Z,95620.95
2018-05-07T20:26:28.298Z,95629.14
2018-05-07T20:28:56.653Z,95625.73
2018-05-07T20:31:25.049Z,95623.88
2018-05-07T20:33:53.393Z,95620.00
2018-05-07T20:36:21.713Z,95624.83
2018-05-07T20:38:50.069Z,95624.44
2018-05-07T20:41:18.385Z,95624.64
2018-05-07T20:43:46.818Z,95625.63
2018-05-07T20:46:15.125Z,95621.34
2018-05-07T20:48:43.474Z,95621.30
2018-05-07T20:51:11.853Z,95621.54
2018-05-07T20:53:40.213Z,95619.14
2018-05-07T20:56:08.530Z,95625.27
2018-05-07T20:58:36.999Z,95625.23
2018-05-07T21:01:05.345Z,95618.11
2018-05-07T21:03:33.751Z,95618.05
2018-05-07T21:06:02.084Z,95616.81
2018-05-07T21:08:30.408Z,95619.16
2018-05-07T21:10:58.761Z,95622.83
2018-05-07T21:13:27.149Z,95627.18
2018-05-07T21:15:55.481Z,95622.08
2018-05-07T21:18:23.818Z,95619.94
2018-05-07T21:20:52.148Z,95621.91
2018-05-07T21:23:20.461Z,95621.41
2018-05-07T21:25:48.792Z,95622.41
2018-05-07T21:28:17.132Z,95624.38
2018-05-07T21:30:45.504Z,95620.44
2018-05-07T21:33:13.881Z,95614.02
2018-05-07T21:35:42.340Z,95619.77
2018-05-07T21:38:10.556Z,95618.11
2018-05-07T21:40:38.918Z,95616.37
2018-05-07T21:43:07.289Z,95611.00
2018-05-07T21:45:35.663Z,95609.68
2018-05-07T21:48:03.965Z,95610.87
2018-05-07T21:50:32.340Z,95613.72
2018-05-07T21:53:00.694Z,95612.73
2018-05-07T21:55:29.072Z,95607.42
2018-05-07T21:57:57.394Z,95605.45
2018-05-07T22:00:26.650Z,95602.45
2018-05-07T22:02:54.967Z,95606.62
2018-05-07T22:05:23.297Z,95611.17
2018-05-07T22:07:51.618Z,95600.45
2018-05-07T22:10:19.958Z,95606.05
2018-05-07T22:12:48.300Z,95602.70
2018-05-07T22:15:16.605Z,95603.70
2018-05-07T22:17:44.985Z,95604.09
2018-05-07T22:20:13.305Z,95604.36
2018-05-07T22:22:41.654Z,95597.50
2018-05-07T22:25:09.965Z,95599.61
2018-05-07T22:27:38.408Z,95602.81
2018-05-07T22:30:06.719Z,95599.36
2018-05-07T22:32:35.089Z,95594.17
2018-05-07T22:35:03.545Z,95597.79
2018-05-07T22:37:31.977Z,95591.63
2018-05-07T22:40:00.374Z,95588.45
2018-05-07T22:42:28.695Z,95592.46
2018-05-07T22:44:57.046Z,95587.31
2018-05-07T22:47:25.385Z,95586.36
2018-05-07T22:49:53.686Z,95593.92
2018-05-07T22:52:22.099Z,95591.73
2018-05-07T22:54:50.326Z,95589.75
2018-05-07T22:57:18.638Z,95586.32
2018-05-07T22:59:46.965Z,95588.00
2018-05-07T23:02:15.493Z,95591.03
2018-05-07T23:04:43.874Z,95586.69
2018-05-07T23:07:12.186Z,95590.53
2018-05-07T23:09:40.543Z,95591.48
2018-05-07T23:12:08.852Z,95582.90
2018-05-07T23:14:37.288Z,95586.11
2018-05-07T23:17:05.609Z,95585.36
2018-05-07T23:19:34.041Z,95584.73
2018-05-07T23:22:02.433Z,95579.21
2018-05-07T23:24:30.803Z,95580.66
2018-05-07T23:26:59.173Z,95580.98
2018-05-07T23:29:27.557Z,95575.61
2018-05-07T23:31:55.876Z,95577.91
2018-05-07T23:34:24.322Z,95573.97
2018-05-07T23:36:52.692Z,95570.89
2018-05-07T23:39:21.012Z,95569.03
2018-05-07T23:41:49.336Z,95569.95
2018-05-07T23:44:17.668Z,95567.69
2018-05-07T23:46:45.976Z,95564.33
2018-05-07T23:49:14.394Z,95568.34
2018-05-07T23:51:42.696Z,95575.69
2018-05-07T23:54:11.036Z,95570.34
2018-05-07T23:56:39.408Z,95570.71
2018-05-07T23:59:07.734Z,95564.54
